Time;durP1;ratioP1;P1;durP2;ratioP2;P2;SDS_P1;SDS_P2;PMS_P1;PMS_P2;Temp;Humidity;BMP_temperature;BMP_pressure;BME280_temperature;BME280_humidity;BME280_pressure;Samples;Min_cycle;Max_cycle;Signal;HPM_P1;HPM_P2
2022/07/27 00:02:05;;;;;;;;;;;;;;;23.19;84.85;99179.59;5055104;28;19927;-52
2022/07/27 00:04:30;;;;;;;;;;;;;;;23.28;85.37;99178.00;5053755;28;20007;-53
2022/07/27 00:06:55;;;;;;;;;;;;;;;23.41;84.01;99177.84;5051914;28;19920;-53
2022/07/27 00:09:21;;;;;;;;;;;;;;;23.58;83.32;99174.63;5055406;28;19916;-52
2022/07/27 00:11:46;;;;;;;;;;;;;;;23.29;84.57;99177.88;5053252;28;20019;-53
2022/07/27 00:14:11;;;;;;;;;;;;;;;22.23;88.74;99186.28;5055910;28;20301;-52
2022/07/27 00:16:36;;;;;;;;;;;;;;;22.30;88.62;99181.38;5051495;28;20032;-51
2022/07/27 00:19:02;;;;;;;;;;;;;;;22.96;86.69;99178.78;5053214;28;19936;-53
2022/07/27 00:21:27;;;;;;;;;;;;;;;23.43;85.95;99181.19;5050927;28;19935;-53
2022/07/27 00:23:53;;;;;;;;;;;;;;;23.53;84.17;99171.56;5053884;28;19939;-53
2022/07/27 00:26:18;;;;;;;;;;;;;;;23.12;86.18;99183.69;5053965;28;19972;-52
2022/07/27 00:28:43;;;;;;;;;;;;;;;22.67;86.63;99183.75;5053514;28;20453;-54
2022/07/27 00:31:08;;;;;;;;;;;;;;;22.03;89.14;99179.06;5054063;28;20003;-51
2022/07/27 00:33:34;;;;;;;;;;;;;;;22.46;87.93;99187.09;5054097;28;19920;-55
2022/07/27 00:36:00;;;;;;;;;;;;;;;22.67;86.10;99184.59;5053308;28;19995;-55
2022/07/27 00:38:26;;;;;;;;;;;;;;;22.76;86.12;99188.25;5053554;28;19916;-52
2022/07/27 00:40:52;;;;;;;;;;;;;;;22.75;85.06;99186.59;5052627;28;19927;-50
2022/07/27 00:43:17;;;;;;;;;;;;;;;22.87;86.29;99183.00;5051058;28;19932;-51
2022/07/27 00:45:43;;;;;;;;;;;;;;;22.70;85.33;99183.53;5050666;28;20847;-52
2022/07/27 00:48:08;;;;;;;;;;;;;;;22.22;87.82;99181.16;5052660;28;20000;-53
2022/07/27 00:50:33;;;;;;;;;;;;;;;22.01;89.83;99187.06;5052008;28;20083;-50
2022/07/27 00:52:59;;;;;;;;;;;;;;;22.75;86.58;99181.34;5054587;28;19912;-52
2022/07/27 00:55:24;;;;;;;;;;;;;;;22.43;85.47;99174.22;5054414;28;19960;-52
2022/07/27 00:57:49;;;;;;;;;;;;;;;22.05;88.29;99178.00;5051366;28;19920;-51
2022/07/27 01:00:15;;;;;;;;;;;;;;;22.76;86.90;99183.88;5047727;28;20058;-53
2022/07/27 01:02:40;;;;;;;;;;;;;;;23.00;85.30;99179.44;5048988;28;19947;-52
2022/07/27 01:05:05;;;;;;;;;;;;;;;22.74;86.13;99179.69;5050040;28;20011;-53
2022/07/27 01:07:31;;;;;;;;;;;;;;;22.19;89.58;99178.72;5050694;28;20023;-53
2022/07/27 01:09:57;;;;;;;;;;;;;;;22.26;90.62;99182.56;5046851;28;19928;-51
2022/07/27 01:12:26;;;;;;;;;;;;;;;22.33;91.04;99184.63;5051174;28;20005;-53
2022/07/27 01:14:52;;;;;;;;;;;;;;;22.55;90.09;99175.88;5052671;28;20114;-52
2022/07/27 01:17:17;;;;;;;;;;;;;;;22.96;88.22;99166.50;5053876;28;19967;-52
2022/07/27 01:19:43;;;;;;;;;;;;;;;23.02;87.26;99172.25;5052257;28;19965;-53
2022/07/27 01:22:08;;;;;;;;;;;;;;;22.87;88.60;99177.72;5052536;28;19920;-52
2022/07/27 01:24:34;;;;;;;;;;;;;;;22.97;86.93;99169.97;5053115;28;19959;-52
2022/07/27 01:27:00;;;;;;;;;;;;;;;22.91;88.27;99173.91;5050465;28;19978;-53
2022/07/27 01:29:25;;;;;;;;;;;;;;;23.09;87.76;99168.19;5052798;28;19999;-53
2022/07/27 01:31:50;;;;;;;;;;;;;;;22.88;88.89;99176.78;5052753;28;20781;-51
2022/07/27 01:34:16;;;;;;;;;;;;;;;21.81;93.59;99175.47;5052460;28;20430;-50
2022/07/27 01:36:41;;;;;;;;;;;;;;;22.22;93.68;99182.00;5052688;28;19916;-51
2022/07/27 01:39:06;;;;;;;;;;;;;;;22.72;92.29;99181.59;5051576;28;20507;-53
2022/07/27 01:41:31;;;;;;;;;;;;;;;22.19;93.27;99186.59;5050631;28;19959;-52
2022/07/27 01:43:57;;;;;;;;;;;;;;;22.83;92.49;99176.34;5052036;28;20006;-52
2022/07/27 01:46:22;;;;;;;;;;;;;;;22.86;93.31;99178.72;5053150;28;19959;-52
2022/07/27 01:48:47;;;;;;;;;;;;;;;22.46;95.93;99171.34;5051579;28;19924;-52
2022/07/27 01:51:12;;;;;;;;;;;;;;;22.53;95.88;99177.81;5051373;28;19926;-52
2022/07/27 01:53:38;;;;;;;;;;;;;;;22.05;98.12;99178.00;5050550;28;19955;-50
2022/07/27 01:56:03;;;;;;;;;;;;;;;22.16;100.00;99182.41;5052444;28;19916;-53
2022/07/27 01:58:28;;;;;;;;;;;;;;;21.74;100.00;99189.16;5051213;28;19931;-52
2022/07/27 02:00:53;;;;;;;;;;;;;;;21.82;100.00;99185.00;5052082;28;19932;-52
2022/07/27 02:03:19;;;;;;;;;;;;;;;21.85;100.00;99187.41;5050979;28;19963;-52
2022/07/27 02:05:44;;;;;;;;;;;;;;;21.53;100.00;99192.44;5052701;28;19931;-50
2022/07/27 02:08:09;;;;;;;;;;;;;;;20.94;100.00;99190.59;5051579;28;19944;-53
2022/07/27 02:10:35;;;;;;;;;;;;;;;20.52;100.00;99194.44;5051789;28;19943;-49
2022/07/27 02:13:00;;;;;;;;;;;;;;;20.45;100.00;99189.63;5050598;28;19956;-51
2022/07/27 02:15:26;;;;;;;;;;;;;;;20.80;100.00;99183.72;5051658;28;19981;-52
2022/07/27 02:17:51;;;;;;;;;;;;;;;20.97;100.00;99179.06;5052068;28;19961;-52
2022/07/27 02:20:18;;;;;;;;;;;;;;;21.10;100.00;99180.66;5051480;28;19925;-50
2022/07/27 02:22:43;;;;;;;;;;;;;;;20.91;100.00;99182.94;5051423;28;19924;-49
2022/07/27 02:25:09;;;;;;;;;;;;;;;20.58;100.00;99194.03;5049754;28;19923;-50
2022/07/27 02:27:34;;;;;;;;;;;;;;;20.72;100.00;99196.50;5034108;28;19920;-52
2022/07/27 02:30:00;;;;;;;;;;;;;;;20.20;100.00;99200.09;5051749;28;19970;-52
2022/07/27 02:32:25;;;;;;;;;;;;;;;20.10;100.00;99204.31;5051131;28;19920;-50
2022/07/27 02:34:50;;;;;;;;;;;;;;;20.47;100.00;99198.19;5051772;28;19920;-52
2022/07/27 02:37:16;;;;;;;;;;;;;;;20.31;100.00;99197.59;5050885;28;20341;-50
2022/07/27 02:39:41;;;;;;;;;;;;;;;21.00;100.00;99194.53;5051829;28;19916;-52
2022/07/27 02:42:06;;;;;;;;;;;;;;;20.64;100.00;99199.69;5050942;28;19921;-52
2022/07/27 02:44:31;;;;;;;;;;;;;;;20.73;100.00;99202.56;5051447;28;19921;-49
2022/07/27 02:46:57;;;;;;;;;;;;;;;20.24;100.00;99209.41;5050891;28;20594;-52
2022/07/27 02:49:22;;;;;;;;;;;;;;;20.60;100.00;99205.25;5052091;28;20405;-48
2022/07/27 02:51:48;;;;;;;;;;;;;;;20.44;100.00;99208.06;5050303;28;19927;-52
2022/07/27 02:54:13;;;;;;;;;;;;;;;20.08;100.00;99211.41;5052437;28;19920;-52
2022/07/27 02:56:38;;;;;;;;;;;;;;;20.04;100.00;99202.94;5050954;28;19958;-51
2022/07/27 02:59:04;;;;;;;;;;;;;;;20.60;100.00;99202.63;5049874;28;19920;-52
2022/07/27 03:01:29;;;;;;;;;;;;;;;21.17;100.00;99196.78;5051058;28;19979;-51
2022/07/27 03:03:54;;;;;;;;;;;;;;;21.40;100.00;99191.66;5051275;28;19925;-52
2022/07/27 03:06:19;;;;;;;;;;;;;;;20.84;100.00;99198.25;5050143;28;19921;-50
2022/07/27 03:08:44;;;;;;;;;;;;;;;20.40;100.00;99206.59;5052550;28;19921;-51
2022/07/27 03:11:10;;;;;;;;;;;;;;;20.21;100.00;99207.84;5051127;28;19966;-49
2022/07/27 03:13:35;;;;;;;;;;;;;;;20.44;100.00;99206.25;5054035;28;19927;-51
2022/07/27 03:16:00;;;;;;;;;;;;;;;19.93;100.00;99210.66;5055544;28;19928;-51
2022/07/27 03:18:25;;;;;;;;;;;;;;;19.64;100.00;99214.25;5053259;28;20147;-52
2022/07/27 03:20:51;;;;;;;;;;;;;;;19.43;100.00;99218.25;5055570;28;20008;-50
2022/07/27 03:23:16;;;;;;;;;;;;;;;19.29;100.00;99224.38;5054339;28;19928;-49
2022/07/27 03:25:42;;;;;;;;;;;;;;;19.40;100.00;99223.69;5053915;28;19920;-51
2022/07/27 03:28:07;;;;;;;;;;;;;;;19.65;100.00;99209.84;5055737;28;19920;-51
2022/07/27 03:30:32;;;;;;;;;;;;;;;19.36;100.00;99222.22;5055612;28;19923;-51
2022/07/27 03:32:57;;;;;;;;;;;;;;;19.77;100.00;99214.28;5054133;28;19931;-52
2022/07/27 03:35:23;;;;;;;;;;;;;;;20.06;100.00;99220.19;5056163;28;19916;-51
2022/07/27 03:37:48;;;;;;;;;;;;;;;19.60;100.00;99212.78;5052933;28;19920;-52
2022/07/27 03:40:13;;;;;;;;;;;;;;;19.49;100.00;99217.88;5055130;28;19951;-53
2022/07/27 03:42:38;;;;;;;;;;;;;;;19.47;100.00;99214.50;5053540;28;20015;-53
2022/07/27 03:45:04;;;;;;;;;;;;;;;19.81;100.00;99215.75;5054867;28;19970;-49
2022/07/27 03:47:29;;;;;;;;;;;;;;;19.94;100.00;99214.97;5054395;28;20670;-51
2022/07/27 03:49:54;;;;;;;;;;;;;;;19.77;100.00;99213.47;5054811;28;20035;-50
2022/07/27 03:52:20;;;;;;;;;;;;;;;19.45;100.00;99219.00;5054104;28;19916;-52
2022/07/27 03:54:45;;;;;;;;;;;;;;;19.81;100.00;99213.16;5054276;28;19963;-49
2022/07/27 03:57:11;;;;;;;;;;;;;;;19.75;100.00;99215.34;5053791;28;20423;-50
2022/07/27 03:59:36;;;;;;;;;;;;;;;20.48;100.00;99199.88;5054411;28;19920;-51
2022/07/27 04:02:02;;;;;;;;;;;;;;;20.88;100.00;99204.09;5052823;28;19924;-52
2022/07/27 04:04:27;;;;;;;;;;;;;;;20.60;100.00;99207.84;5053923;28;20007;-51
2022/07/27 04:06:52;;;;;;;;;;;;;;;20.61;100.00;99202.50;5054593;28;19923;-51
2022/07/27 04:09:17;;;;;;;;;;;;;;;20.75;100.00;99201.50;5052744;28;19924;-51
2022/07/27 04:11:43;;;;;;;;;;;;;;;20.95;100.00;99196.66;5053732;28;19928;-50
2022/07/27 04:14:08;;;;;;;;;;;;;;;20.91;100.00;99197.81;5053577;28;19928;-48
2022/07/27 04:16:33;;;;;;;;;;;;;;;21.01;100.00;99207.53;5053444;28;20017;-50
2022/07/27 04:18:58;;;;;;;;;;;;;;;20.82;100.00;99208.00;5053899;28;19970;-50
2022/07/27 04:21:24;;;;;;;;;;;;;;;21.01;100.00;99207.53;5054941;28;19951;-52
2022/07/27 04:23:49;;;;;;;;;;;;;;;20.80;100.00;99209.03;5053888;28;19983;-50
2022/07/27 04:26:14;;;;;;;;;;;;;;;20.87;100.00;99213.75;5054710;28;19959;-52
2022/07/27 04:28:39;;;;;;;;;;;;;;;20.60;100.00;99219.16;5054931;28;19916;-52
2022/07/27 04:31:05;;;;;;;;;;;;;;;20.63;100.00;99210.25;5053091;28;19924;-52
2022/07/27 04:33:30;;;;;;;;;;;;;;;20.05;100.00;99213.28;5052501;28;20350;-52
2022/07/27 04:35:55;;;;;;;;;;;;;;;19.86;100.00;99218.06;5053001;28;19916;-52
2022/07/27 04:38:20;;;;;;;;;;;;;;;20.09;100.00;99213.91;5055060;28;19917;-51
2022/07/27 04:40:46;;;;;;;;;;;;;;;19.87;100.00;99216.31;5053368;28;20464;-52
2022/07/27 04:43:11;;;;;;;;;;;;;;;19.65;100.00;99228.97;5052842;28;20852;-49
2022/07/27 04:45:36;;;;;;;;;;;;;;;19.54;100.00;99228.84;5052465;28;19925;-51
2022/07/27 04:48:05;;;;;;;;;;;;;;;19.84;100.00;99225.16;5054052;28;19957;-50
2022/07/27 04:50:31;;;;;;;;;;;;;;;19.67;100.00;99233.28;5053322;28;19920;-51
2022/07/27 04:52:56;;;;;;;;;;;;;;;18.93;100.00;99240.59;5053562;28;20395;-52
2022/07/27 04:55:21;;;;;;;;;;;;;;;18.87;100.00;99238.38;5052287;28;20370;-52
2022/07/27 04:57:47;;;;;;;;;;;;;;;19.01;100.00;99246.19;5052876;28;19935;-52
2022/07/27 05:00:12;;;;;;;;;;;;;;;18.99;100.00;99238.44;5046819;28;20408;-50
2022/07/27 05:02:38;;;;;;;;;;;;;;;19.43;100.00;99236.53;5051691;28;19970;-51
2022/07/27 05:05:03;;;;;;;;;;;;;;;20.20;100.00;99236.72;5053508;28;19948;-51
2022/07/27 05:07:29;;;;;;;;;;;;;;;19.80;100.00;99242.84;5053734;28;20017;-52
2022/07/27 05:09:54;;;;;;;;;;;;;;;19.87;100.00;99245.06;5051363;28;19997;-51
2022/07/27 05:12:19;;;;;;;;;;;;;;;20.02;100.00;99249.25;5053849;28;19916;-52
2022/07/27 05:14:44;;;;;;;;;;;;;;;20.62;100.00;99248.66;5051513;28;19973;-52
2022/07/27 05:17:10;;;;;;;;;;;;;;;20.16;100.00;99256.16;5052208;28;19924;-51
2022/07/27 05:19:35;;;;;;;;;;;;;;;19.58;100.00;99261.66;5051331;28;20034;-51
2022/07/27 05:22:00;;;;;;;;;;;;;;;20.43;100.00;99258.69;5053768;28;19956;-50
2022/07/27 05:24:25;;;;;;;;;;;;;;;20.81;100.00;99266.53;5052163;28;19936;-51
2022/07/27 05:26:51;;;;;;;;;;;;;;;20.70;100.00;99265.59;5052895;28;19925;-52
2022/07/27 05:29:16;;;;;;;;;;;;;;;20.50;100.00;99264.34;5052390;28;20670;-52
2022/07/27 05:31:41;;;;;;;;;;;;;;;20.73;100.00;99266.22;5054059;28;19913;-53
2022/07/27 05:34:06;;;;;;;;;;;;;;;20.11;100.00;99264.31;5049196;28;20176;-52
2022/07/27 05:36:31;;;;;;;;;;;;;;;21.05;100.00;99255.25;5052465;28;19920;-53
2022/07/27 05:38:57;;;;;;;;;;;;;;;20.62;100.00;99271.38;5052882;28;20411;-52
2022/07/27 05:41:23;;;;;;;;;;;;;;;20.78;100.00;99274.59;5050353;28;20281;-52
2022/07/27 05:43:48;;;;;;;;;;;;;;;20.76;100.00;99276.50;5052528;28;19986;-49
2022/07/27 05:46:13;;;;;;;;;;;;;;;21.24;100.00;99271.34;5052405;28;19924;-51
2022/07/27 05:48:39;;;;;;;;;;;;;;;21.19;100.00;99272.59;5050407;28;19921;-52
2022/07/27 05:51:04;;;;;;;;;;;;;;;21.67;100.00;99272.66;5052116;28;20386;-51
2022/07/27 05:53:29;;;;;;;;;;;;;;;21.85;100.00;99266.06;5052243;28;19921;-50
2022/07/27 05:55:54;;;;;;;;;;;;;;;22.03;100.00;99260.38;5052176;28;20287;-51
2022/07/27 05:58:20;;;;;;;;;;;;;;;22.23;100.00;99264.97;5051680;28;20429;-50
2022/07/27 06:00:45;;;;;;;;;;;;;;;22.52;100.00;99262.75;5052457;28;20398;-53
2022/07/27 06:03:10;;;;;;;;;;;;;;;21.96;100.00;99269.66;5051015;28;19916;-49
2022/07/27 06:05:35;;;;;;;;;;;;;;;21.96;100.00;99261.78;5052057;28;19920;-51
2022/07/27 06:08:09;;;;;;;;;;;;;;;22.10;100.00;99266.81;5052972;28;19916;-52
2022/07/27 06:10:35;;;;;;;;;;;;;;;22.44;100.00;99264.28;5051275;28;19928;-53
2022/07/27 06:13:02;;;;;;;;;;;;;;;22.23;100.00;99275.47;5053743;28;19920;-51
2022/07/27 06:15:27;;;;;;;;;;;;;;;21.16;100.00;99280.69;5050928;28;19916;-50
2022/07/27 06:17:52;;;;;;;;;;;;;;;22.20;100.00;99280.09;5051563;28;20672;-48
2022/07/27 06:20:18;;;;;;;;;;;;;;;21.58;100.00;99284.66;5052760;28;20181;-52
2022/07/27 06:22:53;;;;;;;;;;;;;;;21.40;100.00;99280.72;5049942;28;20027;-52
2022/07/27 06:25:19;;;;;;;;;;;;;;;21.50;100.00;99285.19;5052153;28;19924;-51
2022/07/27 06:27:44;;;;;;;;;;;;;;;21.69;100.00;99292.56;5051157;28;19928;-50
2022/07/27 06:30:10;;;;;;;;;;;;;;;22.82;98.99;99271.81;5050574;28;19916;-51
2022/07/27 06:32:35;;;;;;;;;;;;;;;22.92;97.66;99271.91;5052021;28;19920;-50
2022/07/27 06:35:01;;;;;;;;;;;;;;;22.01;98.75;99283.25;5051294;28;20342;-52
2022/07/27 06:37:28;;;;;;;;;;;;;;;22.70;95.91;99276.25;5050295;28;19916;-51
2022/07/27 06:39:53;;;;;;;;;;;;;;;22.05;100.00;99282.91;5053202;28;19985;-52
2022/07/27 06:42:19;;;;;;;;;;;;;;;22.34;99.69;99278.13;5051576;28;19917;-51
2022/07/27 06:44:44;;;;;;;;;;;;;;;23.10;95.61;99274.91;5050315;28;20006;-53
2022/07/27 06:47:09;;;;;;;;;;;;;;;23.78;92.15;99270.31;5049433;28;19990;-53
2022/07/27 06:49:34;;;;;;;;;;;;;;;23.88;92.69;99275.63;5054084;28;19927;-53
2022/07/27 06:51:59;;;;;;;;;;;;;;;23.68;91.88;99269.38;5056849;28;19921;-52
2022/07/27 06:54:25;;;;;;;;;;;;;;;23.56;91.01;99271.19;5053913;28;19951;-52
2022/07/27 06:56:50;;;;;;;;;;;;;;;22.53;95.26;99272.31;5055313;28;19964;-51
2022/07/27 06:59:15;;;;;;;;;;;;;;;23.87;92.40;99268.72;5055753;28;19920;-51
2022/07/27 07:01:40;;;;;;;;;;;;;;;24.18;89.10;99272.25;5055613;28;19920;-54
2022/07/27 07:04:06;;;;;;;;;;;;;;;23.89;88.51;99277.31;5056652;28;20517;-52
2022/07/27 07:06:31;;;;;;;;;;;;;;;23.91;86.82;99270.13;5054891;28;20396;-51
2022/07/27 07:08:56;;;;;;;;;;;;;;;22.47;93.90;99288.50;5053210;28;19995;-51
2022/07/27 07:11:21;;;;;;;;;;;;;;;22.60;92.25;99282.31;5056495;28;19939;-53
2022/07/27 07:13:47;;;;;;;;;;;;;;;22.66;91.07;99281.84;5055921;28;19921;-52
2022/07/27 07:16:12;;;;;;;;;;;;;;;22.95;91.06;99288.28;5055985;28;19952;-52
2022/07/27 07:18:37;;;;;;;;;;;;;;;21.95;95.11;99296.84;5054373;28;19952;-52
2022/07/27 07:21:03;;;;;;;;;;;;;;;22.74;93.27;99289.97;5054859;28;19920;-52
2022/07/27 07:23:29;;;;;;;;;;;;;;;22.58;92.36;99294.72;5055335;28;19963;-52
2022/07/27 07:25:54;;;;;;;;;;;;;;;24.46;85.24;99286.53;5053804;28;19927;-52
2022/07/27 07:28:21;;;;;;;;;;;;;;;23.73;84.39;99283.81;5055237;28;19924;-53
2022/07/27 07:30:46;;;;;;;;;;;;;;;24.19;80.81;99280.00;5054569;28;19974;-53
2022/07/27 07:33:12;;;;;;;;;;;;;;;24.62;80.85;99278.19;5054175;28;19924;-51
2022/07/27 07:35:37;;;;;;;;;;;;;;;24.20;78.92;99276.44;5053136;28;20039;-52
2022/07/27 07:38:02;;;;;;;;;;;;;;;24.92;74.19;99277.31;5055030;28;20495;-52
2022/07/27 07:40:28;;;;;;;;;;;;;;;25.77;73.32;99273.34;5053572;28;19927;-52
2022/07/27 07:42:54;;;;;;;;;;;;;;;23.42;78.17;99285.47;5054452;28;19932;-53
2022/07/27 07:45:23;;;;;;;;;;;;;;;25.43;76.49;99273.75;5051929;28;19927;-53
2022/07/27 07:47:48;;;;;;;;;;;;;;;24.57;71.63;99275.97;5052928;28;19931;-54
2022/07/27 07:50:13;;;;;;;;;;;;;;;24.47;71.94;99280.31;5053488;28;19924;-54
2022/07/27 07:52:39;;;;;;;;;;;;;;;24.58;72.62;99279.41;5053001;28;20530;-53
2022/07/27 07:55:05;;;;;;;;;;;;;;;24.69;71.51;99281.13;5054796;28;21115;-53
2022/07/27 07:57:30;;;;;;;;;;;;;;;25.60;70.91;99276.66;5054232;28;19939;-53
2022/07/27 07:59:55;;;;;;;;;;;;;;;25.61;71.10;99280.94;5050567;28;19981;-54
2022/07/27 08:02:20;;;;;;;;;;;;;;;25.66;68.10;99270.84;5049590;28;19920;-52
2022/07/27 08:04:46;;;;;;;;;;;;;;;25.11;69.25;99280.97;5051326;28;19936;-54
2022/07/27 08:07:11;;;;;;;;;;;;;;;23.10;73.38;99285.41;5053024;28;19924;-52
2022/07/27 08:09:36;;;;;;;;;;;;;;;22.67;82.19;99284.34;5051795;28;20402;-52
2022/07/27 08:12:02;;;;;;;;;;;;;;;22.97;82.54;99280.28;5052158;28;20603;-51
2022/07/27 08:14:27;;;;;;;;;;;;;;;25.93;71.79;99264.03;5053893;28;19995;-52
2022/07/27 08:16:52;;;;;;;;;;;;;;;23.64;74.56;99274.03;5055484;28;19923;-53
2022/07/27 08:19:17;;;;;;;;;;;;;;;24.98;73.21;99273.34;5053907;28;20523;-52
2022/07/27 08:21:43;;;;;;;;;;;;;;;25.95;69.54;99265.53;5052768;28;19975;-52
2022/07/27 08:24:08;;;;;;;;;;;;;;;24.05;72.07;99272.44;5051148;28;19970;-54
2022/07/27 08:26:34;;;;;;;;;;;;;;;23.53;78.27;99282.81;5054380;28;19925;-53
2022/07/27 08:28:59;;;;;;;;;;;;;;;24.69;75.98;99275.88;5053437;28;19920;-53
2022/07/27 08:31:24;;;;;;;;;;;;;;;25.38;71.08;99277.75;5053108;28;20015;-53
2022/07/27 08:33:49;;;;;;;;;;;;;;;25.15;63.90;99277.13;5050979;28;20460;-54
2022/07/27 08:36:15;;;;;;;;;;;;;;;23.96;73.53;99284.56;5053797;28;19931;-53
2022/07/27 08:38:40;;;;;;;;;;;;;;;23.35;76.48;99287.75;5051629;28;19921;-52
2022/07/27 08:41:05;;;;;;;;;;;;;;;26.14;70.05;99271.75;5050865;28;19921;-53
2022/07/27 08:43:31;;;;;;;;;;;;;;;23.30;74.05;99289.91;5034159;28;20031;-53
2022/07/27 08:45:57;;;;;;;;;;;;;;;25.11;71.24;99276.56;5052913;28;19980;-53
2022/07/27 08:48:26;;;;;;;;;;;;;;;25.67;65.91;99270.69;5052490;28;20251;-52
2022/07/27 08:50:52;;;;;;;;;;;;;;;23.72;69.78;99287.41;5052876;28;19927;-54
2022/07/27 08:53:17;;;;;;;;;;;;;;;22.67;67.52;99289.63;5050943;28;20526;-52
2022/07/27 08:55:43;;;;;;;;;;;;;;;23.41;68.84;99289.06;5054048;28;19952;-54
2022/07/27 08:58:09;;;;;;;;;;;;;;;23.20;71.37;99294.25;5053839;28;20027;-53
2022/07/27 09:00:35;;;;;;;;;;;;;;;21.73;74.89;99308.91;5053840;28;19928;-52
2022/07/27 09:03:00;;;;;;;;;;;;;;;23.83;72.68;99288.34;5040120;28;19924;-53
2022/07/27 09:05:26;;;;;;;;;;;;;;;24.51;72.39;99297.53;5048940;28;19978;-52
2022/07/27 09:07:51;;;;;;;;;;;;;;;24.82;66.12;99292.28;5051937;28;19924;-53
2022/07/27 09:10:33;;;;;;;;;;;;;;;24.27;69.19;99296.94;5048770;28;19920;-53
2022/07/27 09:12:58;;;;;;;;;;;;;;;26.29;57.00;99273.00;5053172;28;19916;-54
2022/07/27 09:15:23;;;;;;;;;;;;;;;25.36;56.29;99285.81;5054211;28;20807;-53
2022/07/27 09:17:49;;;;;;;;;;;;;;;25.31;52.84;99282.72;5053358;28;19920;-52
2022/07/27 09:20:18;;;;;;;;;;;;;;;25.46;49.04;99280.53;5051104;28;19927;-54
2022/07/27 09:22:45;;;;;;;;;;;;;;;24.61;51.65;99290.53;5035298;28;20053;-52
2022/07/27 09:25:12;;;;;;;;;;;;;;;24.55;49.04;99295.50;5051096;28;19931;-53
2022/07/27 09:27:37;;;;;;;;;;;;;;;25.68;46.94;99287.31;5052965;28;19920;-53
2022/07/27 09:30:07;;;;;;;;;;;;;;;27.18;44.40;99276.94;5051296;28;20305;-54
2022/07/27 09:32:32;;;;;;;;;;;;;;;27.71;39.72;99265.56;5052969;28;19920;-54
2022/07/27 09:34:58;;;;;;;;;;;;;;;26.33;39.21;99270.91;5050311;28;19931;-55
2022/07/27 09:37:26;;;;;;;;;;;;;;;24.49;48.68;99291.56;5048383;28;19920;-54
2022/07/27 09:40:08;;;;;;;;;;;;;;;24.48;46.87;99289.91;5052517;28;19924;-54
2022/07/27 09:42:33;;;;;;;;;;;;;;;24.13;51.07;99288.44;5050921;28;19943;-53
2022/07/27 09:44:58;;;;;;;;;;;;;;;26.10;48.80;99284.44;5052621;28;19920;-52
2022/07/27 09:47:28;;;;;;;;;;;;;;;26.39;47.69;99278.22;5052993;28;19917;-53
2022/07/27 09:49:57;;;;;;;;;;;;;;;26.53;47.63;99284.91;5053227;28;19999;-55
2022/07/27 09:52:28;;;;;;;;;;;;;;;26.04;47.29;99279.72;5053522;28;19916;-53
2022/07/27 09:54:54;;;;;;;;;;;;;;;26.03;46.95;99278.06;5050541;28;20003;-53
2022/07/27 09:57:19;;;;;;;;;;;;;;;26.36;46.85;99289.91;5051632;28;19916;-54
2022/07/27 09:59:45;;;;;;;;;;;;;;;26.95;45.83;99279.16;5050813;28;19977;-55
2022/07/27 10:02:12;;;;;;;;;;;;;;;26.60;44.41;99281.53;5049212;28;19966;-55
2022/07/27 10:04:38;;;;;;;;;;;;;;;26.59;44.89;99284.31;5050010;28;19974;-53
2022/07/27 10:07:04;;;;;;;;;;;;;;;26.56;46.67;99290.72;5052455;28;19920;-54
2022/07/27 10:09:29;;;;;;;;;;;;;;;25.41;48.65;99293.31;5051712;28;19924;-54
2022/07/27 10:11:56;;;;;;;;;;;;;;;25.93;46.38;99287.78;5039696;28;20002;-53
2022/07/27 10:14:21;;;;;;;;;;;;;;;25.85;49.26;99293.72;5048194;28;19924;-54
2022/07/27 10:16:47;;;;;;;;;;;;;;;25.79;48.56;99292.47;5049632;28;19921;-53
2022/07/27 10:19:20;;;;;;;;;;;;;;;25.41;46.94;99288.03;5050251;28;20369;-55
2022/07/27 10:21:46;;;;;;;;;;;;;;;27.05;46.83;99285.22;5050417;28;19920;-54
2022/07/27 10:24:33;;;;;;;;;;;;;;;26.65;50.21;99289.88;5054161;28;19942;-53
2022/07/27 10:26:59;;;;;;;;;;;;;;;26.32;52.35;99290.34;5054070;28;19931;-54
2022/07/27 10:29:24;;;;;;;;;;;;;;;27.24;45.48;99279.03;5054745;28;19968;-54
2022/07/27 10:31:52;;;;;;;;;;;;;;;25.23;47.11;99296.59;5056112;28;19981;-54
2022/07/27 10:34:34;;;;;;;;;;;;;;;27.15;44.65;99282.53;5056452;28;19966;-54
2022/07/27 10:37:16;;;;;;;;;;;;;;;27.44;41.93;99280.56;5055238;28;19925;-55
2022/07/27 10:39:42;;;;;;;;;;;;;;;27.01;46.07;99290.00;5054384;28;19921;-54
2022/07/27 10:42:28;;;;;;;;;;;;;;;26.15;45.55;99281.38;5054799;28;20148;-55
2022/07/27 10:44:53;;;;;;;;;;;;;;;25.81;45.81;99285.25;5056333;28;21207;-55
2022/07/27 10:47:27;;;;;;;;;;;;;;;24.36;44.71;99289.13;5054668;28;19921;-55
2022/07/27 10:50:13;;;;;;;;;;;;;;;26.34;45.28;99286.59;5056150;28;20405;-55
2022/07/27 10:52:39;;;;;;;;;;;;;;;26.39;43.62;99280.88;5055499;28;19932;-54
2022/07/27 10:55:04;;;;;;;;;;;;;;;25.53;44.38;99286.09;5055840;28;19912;-55
2022/07/27 10:57:30;;;;;;;;;;;;;;;26.29;46.64;99284.38;5054351;28;19924;-55
2022/07/27 10:59:55;;;;;;;;;;;;;;;26.15;45.13;99294.56;5054577;28;20309;-55
2022/07/27 11:02:35;;;;;;;;;;;;;;;27.32;42.31;99284.41;5055102;28;19920;-55
2022/07/27 11:05:02;;;;;;;;;;;;;;;27.19;45.12;99297.97;5056073;28;19920;-56
2022/07/27 11:07:27;;;;;;;;;;;;;;;27.88;44.27;99283.28;5055039;28;20283;-55
2022/07/27 11:09:52;;;;;;;;;;;;;;;27.59;46.61;99283.50;5055210;28;19927;-55
2022/07/27 11:12:18;;;;;;;;;;;;;;;26.26;45.92;99284.66;5055272;28;20414;-54
2022/07/27 11:14:46;;;;;;;;;;;;;;;25.38;43.60;99289.09;5054116;28;19921;-55
2022/07/27 11:17:11;;;;;;;;;;;;;;;26.39;47.72;99276.44;5053591;28;19921;-55
2022/07/27 11:19:37;;;;;;;;;;;;;;;24.85;55.60;99292.00;5053828;28;19947;-55
2022/07/27 11:22:02;;;;;;;;;;;;;;;25.26;45.42;99269.13;5056132;28;19970;-55
2022/07/27 11:24:27;;;;;;;;;;;;;;;24.83;53.98;99288.66;5052496;28;20667;-55
2022/07/27 11:26:53;;;;;;;;;;;;;;;27.33;47.75;99262.28;5053088;28;20393;-54
2022/07/27 11:29:19;;;;;;;;;;;;;;;27.79;43.23;99265.66;5054749;28;19974;-54
2022/07/27 11:31:45;;;;;;;;;;;;;;;27.31;43.12;99266.88;5055085;28;19963;-54
2022/07/27 11:34:12;;;;;;;;;;;;;;;27.01;46.21;99268.84;5052442;28;20027;-55
2022/07/27 11:36:41;;;;;;;;;;;;;;;26.72;45.03;99265.50;5051686;28;20847;-55
2022/07/27 11:39:08;;;;;;;;;;;;;;;25.73;46.78;99277.22;5053546;28;20431;-55
2022/07/27 11:41:34;;;;;;;;;;;;;;;26.72;44.85;99268.97;5054017;28;19916;-55
2022/07/27 11:44:00;;;;;;;;;;;;;;;25.49;45.05;99284.69;5054639;28;20521;-55
2022/07/27 11:46:27;;;;;;;;;;;;;;;27.06;45.87;99269.22;5055355;28;20032;-56
2022/07/27 11:48:54;;;;;;;;;;;;;;;26.96;41.79;99260.53;5053628;28;19985;-55
2022/07/27 11:51:19;;;;;;;;;;;;;;;24.96;47.37;99268.19;5053944;28;19927;-56
2022/07/27 11:53:44;;;;;;;;;;;;;;;24.97;50.40;99275.13;5052881;28;19925;-55
2022/07/27 11:56:10;;;;;;;;;;;;;;;27.58;46.13;99254.56;5053460;28;20561;-56
2022/07/27 11:58:53;;;;;;;;;;;;;;;28.27;45.27;99251.13;5054063;28;19947;-56
2022/07/27 12:01:34;;;;;;;;;;;;;;;27.43;44.39;99247.16;5052273;28;19920;-55
2022/07/27 12:04:04;;;;;;;;;;;;;;;27.12;43.34;99254.59;5055206;28;20377;-55
2022/07/27 12:06:32;;;;;;;;;;;;;;;28.50;42.38;99258.56;5053588;28;19974;-55
2022/07/27 12:08:58;;;;;;;;;;;;;;;27.13;43.46;99259.72;5052868;28;19942;-56
2022/07/27 12:11:27;;;;;;;;;;;;;;;28.23;41.58;99256.91;5051535;28;20381;-56
2022/07/27 12:13:56;;;;;;;;;;;;;;;26.51;43.42;99261.25;5054582;28;19920;-56
2022/07/27 12:16:21;;;;;;;;;;;;;;;27.82;44.24;99269.81;5053198;28;20431;-55
2022/07/27 12:18:46;;;;;;;;;;;;;;;26.44;41.33;99260.16;5053141;28;19920;-55
2022/07/27 12:21:16;;;;;;;;;;;;;;;27.78;44.17;99271.94;5054433;28;19927;-54
2022/07/27 12:23:48;;;;;;;;;;;;;;;27.92;39.40;99266.13;5054070;28;19973;-55
2022/07/27 12:26:19;;;;;;;;;;;;;;;29.53;37.19;99261.88;5052397;28;20401;-56
2022/07/27 12:28:45;;;;;;;;;;;;;;;28.81;35.43;99256.22;5052737;28;19959;-55
2022/07/27 12:31:16;;;;;;;;;;;;;;;28.45;37.56;99263.50;5053202;28;19995;-55
2022/07/27 12:33:42;;;;;;;;;;;;;;;29.06;35.85;99257.16;5053567;28;19942;-56
2022/07/27 12:36:07;;;;;;;;;;;;;;;28.71;37.54;99269.59;5051718;28;20409;-56
2022/07/27 12:38:43;;;;;;;;;;;;;;;30.15;35.52;99241.97;5052856;28;20364;-56